Startpagina
METAR-TAF:

METAR-TAF

Vliegvelden :

South Big Horn County Airport

Greybull, Wyoming, Verenigde Staten

breedte: 44-30-57N, lengte: 108-04-33W, hoogte: 1199 m

Actueel weer

Dit bericht is 23 minuten geleden gemaakt, om 10:53 UTC
Wind 22 kt uit het noordnoordwesten met uitschieters tot 35 kt
Temperatuur 7°C
Vochtigheid 53%
Druk 1007 hPa
Zicht: 16.1 km
Geheel bewolkt op 8500 ft

METAR: KGEY 201053Z AUTO 33022G35KT 10SM OVC085 07/M02 A2975 RMK AO2 PK WND 32035/1049 SLP068 T00671017

Tijdstip: 04:16 (11:16 UTC)


TAF: ontbreekt

Waarnemingen en weersverwachtingen van meer dan 4000 vliegvelden (METAR en TAF).

De beschikbare stations zijn de gele en rode punten op de kaart.

Ga met uw muis naar het station om de naam te zien.

Klik dan om waarnemingen en weersverwachtingen te zien.

kaart wijzigen: klik op de groene knoppen met een zwart kruis om in te zoomen, op de groene knop met een streepje om uit te zoomen of op de groene pijlen voor aangrenzende kaarten.


METAR-TAF: